createdAt,value
2022-12-18T00:02:02.100Z,19.70
2022-12-18T00:04:30.389Z,17.37
2022-12-18T00:06:58.564Z,17.37
2022-12-18T00:09:31.575Z,18.10
2022-12-18T00:14:43.985Z,18.87
2022-12-18T00:17:12.144Z,17.77
2022-12-18T00:19:39.949Z,15.60
2022-12-18T00:22:07.905Z,16.33
2022-12-18T00:24:35.765Z,14.83
2022-12-18T00:27:03.777Z,17.83
2022-12-18T00:29:31.684Z,15.33
2022-12-18T00:31:59.636Z,17.07
2022-12-18T00:34:27.626Z,15.63
2022-12-18T00:36:55.411Z,16.10
2022-12-18T00:39:24.042Z,10.60
2022-12-18T00:42:10.228Z,14.70
2022-12-18T00:44:38.146Z,9.20
2022-12-18T00:47:06.212Z,14.57
2022-12-18T00:49:35.061Z,11.23
2022-12-18T00:52:02.982Z,9.07
2022-12-18T00:54:30.945Z,12.97
2022-12-18T00:56:59.007Z,11.57
2022-12-18T00:59:26.866Z,9.83
2022-12-18T01:01:54.942Z,15.80
2022-12-18T01:04:22.909Z,15.70
2022-12-18T01:06:51.273Z,19.03
2022-12-18T01:09:23.109Z,14.77
2022-12-18T01:11:52.774Z,11.90
2022-12-18T01:14:20.669Z,9.97
2022-12-18T01:16:48.787Z,12.00
2022-12-18T01:19:17.078Z,15.67
2022-12-18T01:21:44.876Z,17.30
2022-12-18T01:24:13.357Z,8.73
2022-12-18T01:26:41.329Z,13.23
2022-12-18T01:29:09.337Z,13.77
2022-12-18T01:31:37.621Z,14.27
2022-12-18T01:34:06.319Z,15.63
2022-12-18T01:36:38.721Z,16.13
2022-12-18T01:39:11.086Z,15.73
2022-12-18T01:41:58.531Z,16.60
2022-12-18T01:44:51.451Z,14.27
2022-12-18T01:47:45.569Z,8.53
2022-12-18T01:50:26.011Z,14.45
2022-12-18T01:53:14.992Z,11.03
2022-12-18T01:55:54.701Z,15.13
2022-12-18T01:58:30.205Z,15.80
2022-12-18T02:00:59.395Z,14.07
2022-12-18T02:03:29.085Z,13.53
2022-12-18T02:06:50.383Z,12.30
2022-12-18T02:09:28.164Z,13.60
2022-12-18T02:12:21.806Z,15.10
2022-12-18T02:15:06.808Z,15.30
2022-12-18T02:18:10.055Z,14.50
2022-12-18T02:20:55.060Z,14.77
2022-12-18T02:23:55.667Z,13.60
2022-12-18T02:26:36.513Z,14.43
2022-12-18T02:29:22.032Z,13.33
2022-12-18T02:32:01.423Z,15.37
2022-12-18T02:34:32.297Z,13.43
2022-12-18T02:37:03.399Z,13.77
2022-12-18T02:39:33.974Z,13.60
2022-12-18T02:42:09.093Z,14.37
2022-12-18T02:44:45.338Z,15.97
2022-12-18T02:47:17.223Z,15.73
2022-12-18T02:50:06.633Z,15.23
2022-12-18T02:52:48.371Z,14.80
2022-12-18T02:55:47.324Z,16.33
2022-12-18T02:58:31.805Z,15.30
2022-12-18T03:01:17.047Z,14.63
2022-12-18T03:03:52.907Z,14.90
2022-12-18T03:06:28.851Z,13.70
2022-12-18T03:09:03.295Z,16.63
2022-12-18T03:11:56.136Z,16.57
2022-12-18T03:14:27.306Z,16.20
2022-12-18T03:17:00.150Z,14.73
2022-12-18T03:19:32.571Z,15.20
2022-12-18T03:22:04.866Z,13.23
2022-12-18T03:24:43.173Z,13.57
2022-12-18T03:27:17.058Z,9.47
2022-12-18T03:29:57.640Z,12.90
2022-12-18T03:32:34.556Z,14.73
2022-12-18T03:35:06.799Z,12.57
2022-12-18T03:37:38.595Z,13.37
2022-12-18T03:40:07.743Z,13.53
2022-12-18T03:43:00.291Z,14.07
2022-12-18T03:45:35.583Z,12.97
2022-12-18T03:48:32.270Z,11.63
2022-12-18T03:51:12.909Z,10.87
2022-12-18T03:53:57.148Z,13.43
2022-12-18T03:56:33.940Z,13.07
2022-12-18T03:59:04.012Z,14.10
2022-12-18T04:01:42.824Z,14.30
2022-12-18T04:04:15.772Z,13.50
2022-12-18T04:06:46.784Z,15.03
2022-12-18T04:09:15.817Z,12.77
2022-12-18T04:11:48.531Z,15.20
2022-12-18T04:14:18.533Z,15.03
2022-12-18T04:16:50.850Z,11.87
2022-12-18T04:19:22.578Z,14.73
2022-12-18T04:21:52.230Z,13.60
2022-12-18T04:24:20.300Z,14.67
2022-12-18T04:26:59.492Z,12.30
2022-12-18T04:29:33.094Z,14.50
2022-12-18T04:32:01.139Z,13.00
2022-12-18T04:34:31.592Z,13.73
2022-12-18T04:37:00.197Z,13.83
2022-12-18T04:39:31.391Z,11.13
2022-12-18T04:42:05.167Z,13.23
2022-12-18T04:44:35.004Z,13.70
2022-12-18T04:47:02.924Z,13.17
2022-12-18T04:49:30.746Z,13.07
2022-12-18T04:51:58.800Z,10.33
2022-12-18T04:54:26.785Z,11.73
2022-12-18T04:56:54.748Z,12.43
2022-12-18T04:59:23.224Z,11.43
2022-12-18T05:01:51.675Z,12.50
2022-12-18T05:04:19.820Z,12.20
2022-12-18T05:06:47.812Z,13.60
2022-12-18T05:09:16.499Z,12.20
2022-12-18T05:11:44.597Z,12.33
2022-12-18T05:14:14.680Z,12.13
2022-12-18T05:16:42.531Z,11.30
2022-12-18T05:19:10.853Z,12.93
2022-12-18T05:21:39.306Z,13.23
2022-12-18T05:24:08.096Z,12.83
2022-12-18T05:26:38.526Z,13.07
2022-12-18T05:29:06.481Z,11.83
2022-12-18T05:31:39.038Z,13.40
2022-12-18T05:34:08.313Z,10.13
2022-12-18T05:36:36.179Z,10.43
2022-12-18T05:39:04.420Z,11.07
2022-12-18T05:41:32.551Z,11.90
2022-12-18T05:44:00.552Z,9.43
2022-12-18T05:46:28.793Z,10.07
2022-12-18T05:48:59.886Z,8.47
2022-12-18T05:51:27.820Z,11.83
2022-12-18T05:53:55.993Z,10.53
2022-12-18T05:56:24.696Z,11.17
2022-12-18T05:58:54.344Z,9.10
2022-12-18T06:01:27.698Z,9.60
2022-12-18T06:03:56.378Z,11.87
2022-12-18T06:06:26.821Z,11.87
2022-12-18T06:08:55.481Z,7.57
2022-12-18T06:11:27.461Z,9.10
2022-12-18T06:13:59.156Z,9.67
2022-12-18T06:16:28.877Z,11.87
2022-12-18T06:19:02.437Z,13.23
2022-12-18T06:21:31.791Z,11.67
2022-12-18T06:24:00.945Z,10.97
2022-12-18T06:26:28.923Z,10.60
2022-12-18T06:28:56.962Z,10.57
2022-12-18T06:31:26.216Z,10.80
2022-12-18T06:33:54.323Z,11.20
2022-12-18T06:36:22.374Z,11.73
2022-12-18T06:38:50.589Z,11.77
2022-12-18T06:41:21.228Z,11.53
2022-12-18T06:43:49.207Z,10.00
2022-12-18T06:46:17.498Z,10.27
2022-12-18T06:48:49.909Z,11.27
2022-12-18T06:51:23.420Z,12.33
2022-12-18T06:53:51.369Z,9.03
2022-12-18T06:56:19.282Z,10.13
2022-12-18T06:58:47.492Z,10.87
2022-12-18T07:01:15.687Z,11.60
2022-12-18T07:03:44.438Z,11.07
2022-12-18T07:06:17.816Z,10.47
2022-12-18T07:08:47.006Z,9.67
2022-12-18T07:11:15.460Z,12.93
2022-12-18T07:13:43.877Z,10.20
2022-12-18T07:16:22.396Z,9.47
2022-12-18T07:18:53.095Z,9.87
2022-12-18T07:21:22.677Z,10.00
2022-12-18T07:23:51.054Z,9.93
2022-12-18T07:26:21.033Z,9.63
2022-12-18T07:28:49.909Z,9.57
2022-12-18T07:31:21.604Z,10.13
2022-12-18T07:33:53.578Z,9.60
2022-12-18T07:36:21.817Z,8.80
2022-12-18T07:38:51.255Z,10.07
2022-12-18T07:41:19.917Z,10.30
2022-12-18T07:43:48.628Z,10.03
2022-12-18T07:46:17.457Z,10.40
2022-12-18T07:48:49.364Z,10.60
2022-12-18T07:51:19.403Z,10.10
2022-12-18T07:53:52.419Z,8.43
2022-12-18T07:56:30.560Z,7.30
2022-12-18T07:59:01.583Z,10.67
2022-12-18T08:01:30.010Z,10.17
2022-12-18T08:03:59.723Z,9.47
2022-12-18T08:06:27.750Z,10.87
2022-12-18T08:08:56.913Z,10.90
2022-12-18T08:11:27.285Z,11.20
2022-12-18T08:13:55.628Z,10.23
2022-12-18T08:16:24.042Z,10.37
2022-12-18T08:18:54.477Z,9.43
2022-12-18T08:21:25.165Z,9.53
2022-12-18T08:23:54.168Z,8.70
2022-12-18T08:26:22.745Z,9.37
2022-12-18T08:28:51.766Z,8.77
2022-12-18T08:31:21.082Z,9.43
2022-12-18T08:33:53.938Z,7.13
2022-12-18T08:36:25.061Z,8.37
2022-12-18T08:38:55.026Z,8.87
2022-12-18T08:41:24.241Z,9.00
2022-12-18T08:44:11.642Z,9.33
2022-12-18T08:46:42.576Z,5.37
2022-12-18T08:49:12.426Z,10.00
2022-12-18T08:51:41.342Z,6.13
2022-12-18T08:54:15.018Z,6.90
2022-12-18T08:56:43.815Z,9.13
2022-12-18T08:59:19.039Z,8.03
2022-12-18T09:01:49.647Z,9.83
2022-12-18T09:04:18.470Z,7.43
2022-12-18T09:06:46.912Z,9.20
2022-12-18T09:09:15.540Z,7.33
2022-12-18T09:11:44.087Z,7.67
2022-12-18T09:14:12.128Z,7.77
2022-12-18T09:16:40.105Z,6.87
2022-12-18T09:19:08.284Z,7.10
2022-12-18T09:21:42.170Z,6.13
2022-12-18T09:24:14.809Z,7.07
2022-12-18T09:26:43.678Z,9.23
2022-12-18T09:29:18.469Z,6.88
2022-12-18T09:31:47.755Z,8.03
2022-12-18T09:34:17.739Z,8.10
2022-12-18T09:36:46.192Z,5.93
2022-12-18T09:39:16.099Z,9.13
2022-12-18T09:41:58.832Z,4.83
2022-12-18T09:44:29.311Z,8.43
2022-12-18T09:47:21.234Z,8.73
2022-12-18T09:49:54.196Z,8.27
2022-12-18T09:52:41.116Z,7.70
2022-12-18T09:55:20.630Z,7.90
2022-12-18T09:57:57.907Z,7.37
2022-12-18T10:00:27.324Z,7.30
2022-12-18T10:03:04.525Z,7.33
2022-12-18T10:06:00.512Z,5.63
2022-12-18T10:08:55.642Z,6.88
2022-12-18T10:11:47.568Z,8.00
2022-12-18T10:14:31.715Z,5.13
2022-12-18T10:17:24.267Z,8.10
2022-12-18T10:20:03.933Z,7.17
2022-12-18T10:22:44.054Z,7.17
2022-12-18T10:28:16.273Z,6.37
2022-12-18T10:30:51.215Z,6.13
2022-12-18T10:33:25.486Z,6.33
2022-12-18T10:35:53.911Z,5.83
2022-12-18T10:38:32.877Z,7.07
2022-12-18T10:41:07.222Z,7.10
2022-12-18T10:43:37.527Z,5.07
2022-12-18T10:46:11.595Z,7.43
2022-12-18T10:48:53.938Z,5.10
2022-12-18T10:51:36.653Z,6.47
2022-12-18T10:54:20.317Z,6.60
2022-12-18T10:56:48.608Z,5.30
2022-12-18T10:59:18.706Z,6.87
2022-12-18T11:01:56.586Z,6.87
2022-12-18T11:04:29.909Z,4.50
2022-12-18T11:07:06.698Z,4.97
2022-12-18T11:09:37.740Z,6.60
2022-12-18T11:12:13.692Z,4.67
2022-12-18T11:14:49.571Z,5.03
2022-12-18T11:17:32.209Z,6.70
2022-12-18T11:20:02.485Z,5.23
2022-12-18T11:22:33.008Z,5.87
2022-12-18T11:28:00.976Z,5.73
2022-12-18T11:30:32.550Z,5.90
2022-12-18T11:33:22.690Z,5.97
2022-12-18T11:36:05.055Z,6.17
2022-12-18T11:38:37.995Z,6.13
2022-12-18T11:41:21.162Z,3.73
2022-12-18T11:43:56.794Z,5.47
2022-12-18T11:46:44.589Z,4.30
2022-12-18T11:49:35.552Z,5.40
2022-12-18T11:52:22.197Z,4.63
2022-12-18T11:54:57.798Z,5.83
2022-12-18T11:57:59.479Z,5.10
2022-12-18T12:00:27.781Z,6.13
2022-12-18T12:03:06.540Z,6.57
2022-12-18T12:06:04.663Z,6.27
2022-12-18T12:08:39.286Z,6.37
2022-12-18T12:11:12.142Z,4.80
2022-12-18T12:14:04.777Z,6.50
2022-12-18T12:16:52.069Z,6.73
2022-12-18T12:19:29.757Z,7.23
2022-12-18T12:22:14.768Z,5.53
2022-12-18T12:25:07.479Z,6.65
2022-12-18T12:27:47.999Z,4.97
2022-12-18T12:30:23.864Z,6.27
2022-12-18T12:33:04.303Z,6.07
2022-12-18T12:35:56.334Z,6.30
2022-12-18T12:38:32.040Z,6.77
2022-12-18T12:41:05.150Z,6.10
2022-12-18T12:43:50.241Z,6.77
2022-12-18T12:46:37.884Z,6.53
2022-12-18T12:49:12.447Z,6.10
2022-12-18T12:51:47.210Z,5.32
2022-12-18T12:54:27.077Z,5.65
2022-12-18T12:57:01.249Z,5.37
2022-12-18T12:59:50.848Z,6.93
2022-12-18T13:02:34.675Z,5.37
2022-12-18T13:05:19.255Z,7.63
2022-12-18T13:08:22.514Z,5.90
2022-12-18T13:11:13.004Z,6.30
2022-12-18T13:13:57.313Z,5.17
2022-12-18T13:16:28.555Z,6.10
2022-12-18T13:19:02.049Z,5.97
2022-12-18T13:21:33.576Z,6.97
2022-12-18T13:24:28.622Z,7.03
2022-12-18T13:26:57.624Z,7.35
2022-12-18T13:29:47.654Z,7.17
2022-12-18T13:32:27.587Z,6.17
2022-12-18T13:35:35.318Z,6.10
2022-12-18T13:38:21.444Z,5.80
2022-12-18T13:40:49.774Z,6.57
2022-12-18T13:43:45.608Z,7.10
2022-12-18T13:46:47.404Z,5.90
2022-12-18T13:49:15.687Z,8.30
2022-12-18T13:51:48.280Z,7.10
2022-12-18T13:54:38.637Z,8.50
2022-12-18T13:57:26.336Z,6.20
2022-12-18T13:59:54.531Z,6.57
2022-12-18T14:02:27.433Z,6.80
2022-12-18T14:04:56.396Z,7.73
2022-12-18T14:07:27.195Z,6.70
2022-12-18T14:10:25.883Z,11.07
2022-12-18T14:12:59.178Z,5.37
2022-12-18T14:15:44.721Z,9.40
2022-12-18T14:18:19.172Z,11.23
2022-12-18T14:20:53.239Z,11.85
2022-12-18T14:23:35.146Z,6.50
2022-12-18T14:26:20.535Z,9.77
2022-12-18T14:28:48.932Z,7.85
2022-12-18T14:31:24.684Z,8.13
2022-12-18T14:33:54.007Z,11.93
2022-12-18T14:36:28.938Z,10.13
2022-12-18T14:39:00.676Z,9.60
2022-12-18T14:41:29.794Z,7.00
2022-12-18T14:44:08.104Z,15.27
2022-12-18T14:46:40.464Z,7.43
2022-12-18T14:49:37.941Z,17.43
2022-12-18T14:52:20.035Z,9.80
2022-12-18T14:54:48.824Z,9.43
2022-12-18T14:57:36.992Z,8.27
2022-12-18T15:00:09.094Z,8.47
2022-12-18T15:02:40.248Z,7.67
2022-12-18T15:05:14.759Z,7.87
2022-12-18T15:07:48.670Z,8.77
2022-12-18T15:10:18.450Z,8.63
2022-12-18T15:13:08.615Z,7.30
2022-12-18T15:15:45.872Z,7.53
2022-12-18T15:18:26.847Z,7.63
2022-12-18T15:20:59.904Z,7.73
2022-12-18T15:23:30.982Z,6.63
2022-12-18T15:26:11.559Z,6.43
2022-12-18T15:28:46.543Z,7.03
2022-12-18T15:31:15.890Z,7.90
2022-12-18T15:33:54.908Z,7.30
2022-12-18T15:36:27.632Z,8.40
2022-12-18T15:39:06.512Z,8.10
2022-12-18T15:41:39.133Z,7.20
2022-12-18T15:44:29.941Z,8.70
2022-12-18T15:46:59.134Z,7.37
2022-12-18T15:49:30.434Z,5.97
2022-12-18T15:52:05.797Z,7.43
2022-12-18T15:57:26.698Z,7.80
2022-12-18T15:59:58.964Z,6.18
2022-12-18T16:02:29.175Z,7.83
2022-12-18T16:05:00.472Z,7.23
2022-12-18T16:07:30.768Z,8.20
2022-12-18T16:10:01.011Z,7.83
2022-12-18T16:12:32.963Z,7.80
2022-12-18T16:15:07.702Z,7.40
2022-12-18T16:17:37.251Z,5.70
2022-12-18T16:20:06.011Z,11.70
2022-12-18T16:22:34.684Z,8.57
2022-12-18T16:25:06.458Z,12.17
2022-12-18T16:27:37.580Z,7.17
2022-12-18T16:30:06.137Z,7.50
2022-12-18T16:32:34.093Z,5.37
2022-12-18T16:35:02.303Z,6.07
2022-12-18T16:37:30.390Z,4.90
2022-12-18T16:39:58.516Z,8.03
2022-12-18T16:42:26.554Z,7.73
2022-12-18T16:44:54.942Z,6.70
2022-12-18T16:47:23.204Z,6.50
2022-12-18T16:49:53.022Z,7.30
2022-12-18T16:52:21.362Z,8.80
2022-12-18T16:54:49.673Z,5.13
2022-12-18T16:57:21.121Z,7.43
2022-12-18T16:59:52.333Z,5.20
2022-12-18T17:02:26.003Z,7.30
2022-12-18T17:07:30.099Z,7.03
2022-12-18T17:09:58.709Z,5.63
2022-12-18T17:12:28.480Z,6.97
2022-12-18T17:14:59.830Z,5.37
2022-12-18T17:17:27.816Z,4.50
2022-12-18T17:19:55.982Z,8.90
2022-12-18T17:22:23.862Z,5.53
2022-12-18T17:24:57.347Z,7.10
2022-12-18T17:27:25.504Z,6.23
2022-12-18T17:29:54.196Z,7.47
2022-12-18T17:32:22.238Z,7.80
2022-12-18T17:34:50.068Z,6.03
2022-12-18T17:37:18.002Z,4.37
2022-12-18T17:39:45.987Z,8.90
2022-12-18T17:42:15.921Z,6.73
2022-12-18T17:44:44.989Z,8.33
2022-12-18T17:47:14.294Z,8.83
2022-12-18T17:49:42.157Z,8.50
2022-12-18T17:52:10.982Z,7.47
2022-12-18T17:54:41.841Z,6.97
2022-12-18T17:57:10.343Z,8.33
2022-12-18T17:59:38.439Z,5.47
2022-12-18T18:02:06.956Z,6.13
2022-12-18T18:04:35.499Z,6.57
2022-12-18T18:07:03.795Z,6.70
2022-12-18T18:09:32.594Z,6.87
2022-12-18T18:12:19.264Z,6.97
2022-12-18T18:14:47.489Z,6.40
2022-12-18T18:17:15.821Z,5.57
2022-12-18T18:19:49.735Z,5.67
2022-12-18T18:22:18.858Z,8.30
2022-12-18T18:24:47.023Z,9.33
2022-12-18T18:27:15.263Z,5.10
2022-12-18T18:29:43.442Z,9.63
2022-12-18T18:32:11.531Z,7.53
2022-12-18T18:34:39.611Z,5.63
2022-12-18T18:37:07.915Z,6.83
2022-12-18T18:39:36.142Z,7.13
2022-12-18T18:42:04.214Z,9.83
2022-12-18T18:44:32.401Z,5.87
2022-12-18T18:47:00.992Z,9.90
2022-12-18T18:49:31.796Z,9.53
2022-12-18T18:52:00.250Z,7.47
2022-12-18T18:54:28.376Z,10.60
2022-12-18T18:57:19.402Z,11.20
2022-12-18T18:59:44.225Z,8.97
2022-12-18T19:02:14.293Z,5.70
2022-12-18T19:04:46.260Z,7.30
2022-12-18T19:07:28.110Z,11.40
2022-12-18T19:10:03.960Z,7.57
2022-12-18T19:12:52.670Z,7.70
2022-12-18T19:15:22.896Z,7.33
2022-12-18T19:17:50.944Z,9.77
2022-12-18T19:20:19.273Z,7.90
2022-12-18T19:22:54.370Z,6.07
2022-12-18T19:25:33.856Z,9.57
2022-12-18T19:28:21.473Z,7.57
2022-12-18T19:30:50.927Z,10.43
2022-12-18T19:33:42.218Z,8.33
2022-12-18T19:36:23.491Z,6.60
2022-12-18T19:38:53.431Z,8.63
2022-12-18T19:41:22.856Z,7.63
2022-12-18T19:43:51.667Z,7.67
2022-12-18T19:46:22.638Z,10.47
2022-12-18T19:48:51.284Z,6.77
2022-12-18T19:51:24.970Z,8.43
2022-12-18T19:53:58.395Z,5.13
2022-12-18T19:56:30.774Z,10.70
2022-12-18T19:58:59.808Z,6.40
2022-12-18T20:01:29.556Z,12.17
2022-12-18T20:03:58.859Z,10.93
2022-12-18T20:06:32.321Z,6.70
2022-12-18T20:09:05.208Z,8.80
2022-12-18T20:11:36.379Z,9.03
2022-12-18T20:14:11.064Z,10.00
2022-12-18T20:16:39.242Z,6.20
2022-12-18T20:19:07.854Z,8.77
2022-12-18T20:21:37.067Z,9.40
2022-12-18T20:24:07.014Z,8.57
2022-12-18T20:26:35.650Z,6.83
2022-12-18T20:29:03.626Z,8.47
2022-12-18T20:31:31.575Z,8.30
2022-12-18T20:34:01.499Z,10.07
2022-12-18T20:36:32.869Z,8.60
2022-12-18T20:39:03.997Z,8.10
2022-12-18T20:41:38.530Z,8.57
2022-12-18T20:44:22.662Z,12.20
2022-12-18T20:46:54.272Z,10.60
2022-12-18T20:49:22.840Z,7.40
2022-12-18T20:51:53.171Z,10.23
2022-12-18T20:54:22.542Z,11.30
2022-12-18T20:56:51.320Z,10.80
2022-12-18T20:59:19.935Z,8.73
2022-12-18T21:01:49.489Z,8.20
2022-12-18T21:04:19.192Z,11.47
2022-12-18T21:06:54.200Z,12.97
2022-12-18T21:09:30.680Z,13.23
2022-12-18T21:12:29.637Z,12.03
2022-12-18T21:15:06.211Z,12.20
2022-12-18T21:17:34.659Z,11.83
2022-12-18T21:20:15.868Z,6.37
2022-12-18T21:22:46.935Z,10.17
2022-12-18T21:25:15.002Z,8.47
2022-12-18T21:27:42.904Z,9.20
2022-12-18T21:30:14.910Z,10.43
2022-12-18T21:32:51.477Z,7.93
2022-12-18T21:35:19.369Z,9.17
2022-12-18T21:37:48.853Z,8.80
2022-12-18T21:40:16.762Z,9.73
2022-12-18T21:43:03.284Z,9.27
2022-12-18T21:45:31.216Z,9.50
2022-12-18T21:47:59.244Z,10.13
2022-12-18T21:50:27.175Z,10.17
2022-12-18T21:52:55.505Z,7.13
2022-12-18T21:55:23.413Z,11.10
2022-12-18T21:57:53.486Z,9.60
2022-12-18T22:00:21.516Z,7.17
2022-12-18T22:03:17.723Z,12.33
2022-12-18T22:05:40.054Z,13.93
2022-12-18T22:08:07.994Z,13.57
2022-12-18T22:10:39.231Z,11.33
2022-12-18T22:13:15.485Z,11.37
2022-12-18T22:15:52.608Z,10.50
2022-12-18T22:18:21.412Z,14.63
2022-12-18T22:20:49.330Z,12.20
2022-12-18T22:23:17.290Z,11.90
2022-12-18T22:25:45.200Z,7.90
2022-12-18T22:28:48.232Z,9.30
2022-12-18T22:31:16.071Z,11.30
2022-12-18T22:33:44.075Z,10.30
2022-12-18T22:36:13.949Z,14.87
2022-12-18T22:38:43.964Z,12.23
2022-12-18T22:41:11.758Z,11.27
2022-12-18T22:43:39.527Z,13.17
2022-12-18T22:46:10.352Z,14.07
2022-12-18T22:48:39.075Z,10.03
2022-12-18T22:51:07.141Z,11.23
2022-12-18T22:53:35.036Z,7.77
2022-12-18T22:56:03.324Z,9.23
2022-12-18T22:58:31.556Z,11.33
2022-12-18T23:00:59.484Z,10.63
2022-12-18T23:03:27.367Z,8.03
2022-12-18T23:06:05.869Z,9.07
2022-12-18T23:08:35.002Z,10.93
2022-12-18T23:11:03.393Z,13.17
2022-12-18T23:13:32.550Z,12.30
2022-12-18T23:16:00.789Z,16.00
2022-12-18T23:18:28.901Z,11.33
2022-12-18T23:20:56.878Z,13.90
2022-12-18T23:23:25.719Z,12.00
2022-12-18T23:26:02.022Z,9.87
2022-12-18T23:28:31.120Z,10.03
2022-12-18T23:31:13.693Z,11.80
2022-12-18T23:33:44.764Z,11.30
2022-12-18T23:36:14.678Z,9.07
2022-12-18T23:38:43.085Z,8.40
2022-12-18T23:41:14.474Z,9.87
2022-12-18T23:43:42.988Z,11.57
2022-12-18T23:46:18.121Z,10.00
2022-12-18T23:48:46.620Z,14.00
2022-12-18T23:51:15.810Z,10.23
2022-12-18T23:53:44.291Z,11.27
2022-12-18T23:56:13.919Z,12.53
2022-12-18T23:58:43.331Z,14.13
